sensor_id;sensor_type;location;lat;lon;timestamp;pressure;altitude;pressure_sealevel;temperature;humidity
15558;BME280;7880;50.110;9.372;2024-01-15T00:04:27;-3.806396504485747;;;-3.937;100.0
15558;BME280;7880;50.110;9.372;2024-01-15T00:09:36;-3.7761476498038973;;;-3.875;100.0
15558;BME280;7880;50.110;9.372;2024-01-15T00:14:36;-3.8316038753837347;;;-3.937;100.0
15558;BME280;7880;50.110;9.372;2024-01-15T00:19:41;-3.8316038753837347;;;-3.937;100.0
15558;BME280;7880;50.110;9.372;2024-01-15T00:24:43;-3.9576406207343098;;;-4.062;100.0
15558;BME280;7880;50.110;9.372;2024-01-15T00:29:42;-3.8517697668634354;;;-3.937;100.0
15558;BME280;7880;50.110;9.372;2024-01-15T00:34:51;-3.816479453718057;;;-3.937;100.0
15558;BME280;7880;50.110;9.372;2024-01-15T00:40:07;-3.8265624017862137;;;-3.937;100.0
15558;BME280;7880;50.110;9.372;2024-01-15T00:45:00;-4.023179656430147;;;-4.0;100.0
15558;BME280;7880;50.110;9.372;2024-01-15T00:50:00;-3.8316038753837347;;;-3.937;100.0
15558;BME280;7880;50.110;9.372;2024-01-15T00:55:01;-3.8265624017862137;;;-3.937;100.0
15558;BME280;7880;50.110;9.372;2024-01-15T01:00:06;-3.7257328687177504;;;-3.875;100.0
15558;BME280;7880;50.110;9.372;2024-01-15T01:05:08;-3.7307743481360376;;;-3.875;100.0
15558;BME280;7880;50.110;9.372;2024-01-15T01:10:11;-3.7912720784544947;;;-3.937;100.0
15558;BME280;7880;50.110;9.372;2024-01-15T01:15:13;-3.8265624017862137;;;-3.937;100.0
15558;BME280;7880;50.110;9.372;2024-01-15T01:20:19;-3.7509402628988027;;;-3.937;100.0
15558;BME280;7880;50.110;9.372;2024-01-15T01:25:23;-3.9576406207343098;;;-4.0;100.0
15558;BME280;7880;50.110;9.372;2024-01-15T01:30:28;-3.7660646959149746;;;-3.875;100.0
15558;BME280;7880;50.110;9.372;2024-01-15T01:35:31;-3.6349861894210336;;;-3.812;100.0
15558;BME280;7880;50.110;9.372;2024-01-15T01:40:35;-3.8769771246646996;;;-3.937;100.0
15558;BME280;7880;50.110;9.372;2024-01-15T01:45:41;-3.8870600657479373;;;-4.0;100.0
15558;BME280;7880;50.110;9.372;2024-01-15T01:50:46;-3.8467282944300676;;;-4.0;100.0
15558;BME280;7880;50.110;9.372;2024-01-15T01:55:50;-3.786230602528667;;;-3.937;100.0
15558;BME280;7880;50.110;9.372;2024-01-15T02:00:52;-3.786230602528667;;;-3.875;100.0
15558;BME280;7880;50.110;9.372;2024-01-15T02:05:56;-3.8467282944300676;;;-3.937;100.0
15558;BME280;7880;50.110;9.372;2024-01-15T02:10:58;-3.771106173004955;;;-3.812;100.0
15558;BME280;7880;50.110;9.372;2024-01-15T02:16:10;-3.7055669481342193;;;-3.812;100.0
15558;BME280;7880;50.110;9.372;2024-01-15T02:21:05;-3.6652350929973183;;;-3.812;100.0
15558;BME280;7880;50.110;9.372;2024-01-15T02:26:09;-3.8366453486902174;;;-3.812;100.0
15558;BME280;7880;50.110;9.372;2024-01-15T02:31:11;-3.7055669481342193;;;-3.812;100.0
15558;BME280;7880;50.110;9.372;2024-01-15T02:36:22;-3.7257328687177504;;;-3.812;100.0
15558;BME280;7880;50.110;9.372;2024-01-15T02:41:17;-3.6299447044730186;;;-3.75;100.0
15558;BME280;7880;50.110;9.372;2024-01-15T02:46:21;-3.7660646959149746;;;-3.812;100.0
15558;BME280;7880;50.110;9.372;2024-01-15T02:51:26;-3.6148202478827445;;;-3.75;100.0
15558;BME280;7880;50.110;9.372;2024-01-15T02:56:27;-3.60473727536737;;;-3.687;100.0
15558;BME280;7880;50.110;9.372;2024-01-15T03:01:33;-3.60473727536737;;;-3.687;100.0
15558;BME280;7880;50.110;9.372;2024-01-15T03:06:34;-3.559363884641789;;;-3.687;100.0
15558;BME280;7880;50.110;9.372;2024-01-15T03:11:37;-3.4635755379160402;;;-3.625;100.0
15558;BME280;7880;50.110;9.372;2024-01-15T03:16:40;-3.4887830077670516;;;-3.625;100.0
15558;BME280;7880;50.110;9.372;2024-01-15T03:21:43;-3.458534043072723;;;-3.562;100.0
15558;BME280;7880;50.110;9.372;2024-01-15T03:26:48;-3.418202073848806;;;-3.562;100.0
15558;BME280;7880;50.110;9.372;2024-01-15T03:31:51;-3.5139904703421054;;;-3.562;100.0
15558;BME280;7880;50.110;9.372;2024-01-15T03:36:54;-3.458534043072723;;;-3.562;100.0
15558;BME280;7880;50.110;9.372;2024-01-15T03:42:07;-3.4131605763861446;;;-3.562;100.0
15558;BME280;7880;50.110;9.372;2024-01-15T03:47:03;-3.4484510525129735;;;-3.562;100.0
15558;BME280;7880;50.110;9.372;2024-01-15T03:52:06;-3.3778700859984383;;;-3.5;100.0
15558;BME280;7880;50.110;9.372;2024-01-15T03:57:08;-3.4938245008641386;;;-3.5;100.0
15558;BME280;7880;50.110;9.372;2024-01-15T04:00:58;-3.4635755379160402;;;-3.5;100.0
15558;BME280;7880;50.110;9.372;2024-01-15T04:06:02;-3.498865993670188;;;-3.562;100.0
15558;BME280;7880;50.110;9.372;2024-01-15T04:10:59;-3.5543223953281995;;;-3.562;100.0
15558;BME280;7880;50.110;9.372;2024-01-15T04:16:04;-3.56440537366434;;;-3.562;100.0
15558;BME280;7880;50.110;9.372;2024-01-15T04:21:08;-3.4736585267295594;;;-3.562;100.0
15558;BME280;7880;50.110;9.372;2024-01-15T04:26:11;-3.4434095567965413;;;-3.562;100.0
15558;BME280;7880;50.110;9.372;2024-01-15T04:31:21;-3.56440537366434;;;-3.562;100.0
15558;BME280;7880;50.110;9.372;2024-01-15T04:36:14;-3.5492809057235717;;;-3.562;100.0
15558;BME280;7880;50.110;9.372;2024-01-15T04:41:19;-3.4434095567965413;;;-3.5;100.0
15558;BME280;7880;50.110;9.372;2024-01-15T04:46:20;-3.478700020699762;;;-3.562;100.0
15558;BME280;7880;50.110;9.372;2024-01-15T04:51:24;-3.42324357102043;;;-3.5;100.0
15558;BME280;7880;50.110;9.372;2024-01-15T04:56:32;-3.4484510525129735;;;-3.437;100.0
15558;BME280;7880;50.110;9.372;2024-01-15T05:01:31;-3.3526625841332134;;;-3.437;100.0
15558;BME280;7880;50.110;9.372;2024-01-15T05:06:34;-3.201417420146754;;;-3.312;100.0
15558;BME280;7880;50.110;9.372;2024-01-15T05:11:38;-3.3173720692982895;;;-3.312;100.0
15558;BME280;7880;50.110;9.372;2024-01-15T05:16:49;-3.357704085088335;;;-3.437;100.0
15558;BME280;7880;50.110;9.372;2024-01-15T05:21:44;-3.282081540202489;;;-3.375;100.0
15558;BME280;7880;50.110;9.372;2024-01-15T05:26:49;-3.2719985292700584;;;-3.312;100.0
15558;BME280;7880;50.110;9.372;2024-01-15T05:31:54;-3.287123045232147;;;-3.375;100.0
15558;BME280;7880;50.110;9.372;2024-01-15T05:36:57;-3.3072890624403954;;;-3.375;100.0
15558;BME280;7880;50.110;9.372;2024-01-15T05:42:06;-3.166126844193786;;;-3.312;100.0
15558;BME280;7880;50.110;9.372;2024-01-15T05:47:05;-3.135877767740749;;;-3.25;100.0
15558;BME280;7880;50.110;9.372;2024-01-15T05:52:09;-3.120753225585213;;;-3.312;100.0
15558;BME280;7880;50.110;9.372;2024-01-15T05:57:12;-3.0451304755173623;;;-3.25;100.0
15558;BME280;7880;50.110;9.372;2024-01-15T06:02:16;-3.181251378491288;;;-3.25;100.0
15558;BME280;7880;50.110;9.372;2024-01-15T06:07:19;-3.060255030769622;;;-3.25;100.0
15558;BME280;7880;50.110;9.372;2024-01-15T06:12:25;-2.969507659965893;;;-3.187;100.0
15558;BME280;7880;50.110;9.372;2024-01-15T06:17:36;-3.0501719942258205;;;-3.187;100.0
15558;BME280;7880;50.110;9.372;2024-01-15T06:22:37;-2.9493415647593793;;;-3.187;100.0
15558;BME280;7880;50.110;9.372;2024-01-15T06:27:35;-3.1056286808103324;;;-3.187;100.0
15558;BME280;7880;50.110;9.372;2024-01-15T06:32:36;-2.8737186662619933;;;-3.125;100.0
15558;BME280;7880;50.110;9.372;2024-01-15T06:37:40;-2.914050886943005;;;-3.125;100.0
15558;BME280;7880;50.110;9.372;2024-01-15T06:42:43;-3.120753225585213;;;-3.187;100.0
15558;BME280;7880;50.110;9.372;2024-01-15T06:47:46;-2.9493415647593793;;;-3.125;100.0
15558;BME280;7880;50.110;9.372;2024-01-15T06:52:53;-2.989673750515794;;;-3.125;100.0
15558;BME280;7880;50.110;9.372;2024-01-15T06:57:58;-3.009839836409083;;;-3.187;100.0
15558;BME280;7880;50.110;9.372;2024-01-15T07:02:59;-2.9291754648962525;;;-3.125;100.0
15558;BME280;7880;50.110;9.372;2024-01-15T07:08:02;-2.959424612944713;;;-3.125;100.0
15558;BME280;7880;50.110;9.372;2024-01-15T07:13:05;-2.9342169902985917;;;-3.187;100.0
15558;BME280;7880;50.110;9.372;2024-01-15T07:18:13;-2.8838017231784763;;;-3.187;100.0
15558;BME280;7880;50.110;9.372;2024-01-15T07:23:13;-2.858594078704482;;;-3.187;100.0
15558;BME280;7880;50.110;9.372;2024-01-15T07:28:16;-2.8333864269545304;;;-3.125;100.0
15558;BME280;7880;50.110;9.372;2024-01-15T07:33:33;-2.9493415647593793;;;-3.187;100.0
15558;BME280;7880;50.110;9.372;2024-01-15T07:38:25;-2.9291754648962525;;;-3.125;100.0
15558;BME280;7880;50.110;9.372;2024-01-15T07:43:32;-2.9795907058229205;;;-3.125;100.0
15558;BME280;7880;50.110;9.372;2024-01-15T07:48:36;-2.9291754648962525;;;-3.062;100.0
15558;BME280;7880;50.110;9.372;2024-01-15T07:53:37;-2.803137235250324;;;-3.0;100.0
15558;BME280;7880;50.110;9.372;2024-01-15T07:58:40;-2.6720572834601626;;;-2.937;100.0
15558;BME280;7880;50.110;9.372;2024-01-15T08:03:42;-2.803137235250324;;;-2.937;100.0
15558;BME280;7880;50.110;9.372;2024-01-15T08:08:47;-2.7476803565805312;;;-2.937;100.0
15558;BME280;7880;50.110;9.372;2024-01-15T08:13:50;-2.717431135190418;;;-2.875;100.0
15558;BME280;7880;50.110;9.372;2024-01-15T08:18:53;-2.7073480590654073;;;-2.875;100.0
15558;BME280;7880;50.110;9.372;2024-01-15T08:23:56;-2.6670157429238315;;;-2.812;100.0
15558;BME280;7880;50.110;9.372;2024-01-15T08:28:57;-2.581309509277344;;;-2.812;100.0
15558;BME280;7880;50.110;9.372;2024-01-15T08:34:02;-2.5863510547613258;;;-2.75;100.0
15558;BME280;7880;50.110;9.372;2024-01-15T08:39:09;-2.5661848710791673;;;-2.75;100.0
15558;BME280;7880;50.110;9.372;2024-01-15T08:44:14;-2.606517233786872;;;-2.75;100.0
15558;BME280;7880;50.110;9.372;2024-01-15T08:49:14;-2.5258524897450116;;;-2.687;100.0
15558;BME280;7880;50.110;9.372;2024-01-15T08:54:19;-2.425021454918897;;;-2.625;100.0
15558;BME280;7880;50.110;9.372;2024-01-15T08:59:25;-2.4703954349970445;;;-2.625;100.0
15558;BME280;7880;50.110;9.372;2024-01-15T09:03:06;-2.4351045636401976;;;-2.562;100.0
15558;BME280;7880;50.110;9.372;2024-01-15T09:08:18;-2.4351045636401976;;;-2.562;100.0
15558;BME280;7880;50.110;9.372;2024-01-15T09:13:11;-2.3241903036774603;;;-2.5;100.0
15558;BME280;7880;50.110;9.372;2024-01-15T09:18:13;-2.2536084285413382;;;-2.375;100.0
15558;BME280;7880;50.110;9.372;2024-01-15T09:23:16;-2.051945613831049;;;-2.312;100.0
15558;BME280;7880;50.110;9.372;2024-01-15T09:28:20;-2.147735508880578;;;-2.312;100.0
15558;BME280;7880;50.110;9.372;2024-01-15T09:33:30;-2.233442168025067;;;-2.312;100.0
15558;BME280;7880;50.110;9.372;2024-01-15T09:38:30;-2.3040240594593344;;;-2.375;100.0
15558;BME280;7880;50.110;9.372;2024-01-15T09:43:33;-2.1527770793938545;;;-2.312;100.0
15558;BME280;7880;50.110;9.372;2024-01-15T09:48:37;-2.183026496361708;;;-2.312;100.0
15558;BME280;7880;50.110;9.372;2024-01-15T09:53:39;-2.0065714163472874;;;-2.187;100.0
15558;BME280;7880;50.110;9.372;2024-01-15T09:58:44;-2.0670703410869464;;;-2.187;100.0
15558;BME280;7880;50.110;9.372;2024-01-15T10:03:47;-2.0418624608719256;;;-2.125;100.0
15558;BME280;7880;50.110;9.372;2024-01-15T10:08:51;-1.8805318552011159;;;-2.062;100.0
15558;BME280;7880;50.110;9.372;2024-01-15T10:13:55;-1.8502823334594722;;;-2.062;100.0
15558;BME280;7880;50.110;9.372;2024-01-15T10:19:03;-1.7444089248543606;;;-1.937;100.0
15558;BME280;7880;50.110;9.372;2024-01-15T10:24:02;-1.6133273839950562;;;-1.875;100.0
15558;BME280;7880;50.110;9.372;2024-01-15T10:29:06;-1.7595337053702678;;;-1.875;100.0
15558;BME280;7880;50.110;9.372;2024-01-15T10:34:10;-1.6284521872119513;;;-1.812;100.0
15558;BME280;7880;50.110;9.372;2024-01-15T10:39:13;-1.6435769878095017;;;-1.75;100.0
15558;BME280;7880;50.110;9.372;2024-01-15T10:44:21;-1.3057891504780854;;;-1.625;100.0
15558;BME280;7880;50.110;9.372;2024-01-15T10:49:27;-1.2755394296662417;;;-1.5;100.0
15558;BME280;7880;50.110;9.372;2024-01-15T10:54:37;-1.3108307695947587;;;-1.5;100.0
15558;BME280;7880;50.110;9.372;2024-01-15T10:59:29;-1.4570375973766203;;;-1.625;100.0
15558;BME280;7880;50.110;9.372;2024-01-15T11:04:32;-1.4066214775142725;;;-1.562;100.0
15558;BME280;7880;50.110;9.372;2024-01-15T11:09:49;-1.421746316528879;;;-1.562;100.0
15558;BME280;7880;50.110;9.372;2024-01-15T11:14:46;-1.3360388608125504;;;-1.5;100.0
15558;BME280;7880;50.110;9.372;2024-01-15T11:19:47;-1.1595820694928989;;;-1.375;100.0
15558;BME280;7880;50.110;9.372;2024-01-15T11:24:50;-1.1444571850763168;;;-1.375;100.0
15558;BME280;7880;50.110;9.372;2024-01-15T11:30:03;-1.1142074083851186;;;-1.375;100.0
15558;BME280;7880;50.110;9.372;2024-01-15T11:34:59;-0.9175836045062169;;;-1.25;100.0
15558;BME280;7880;50.110;9.372;2024-01-15T11:40:04;-1.0133747437444982;;;-1.125;100.0
15558;BME280;7880;50.110;9.372;2024-01-15T11:45:09;-1.1242906684463378;;;-1.25;100.0
15558;BME280;7880;50.110;9.372;2024-01-15T11:50:15;-0.872208817669889;;;-1.125;100.0
15558;BME280;7880;50.110;9.372;2024-01-15T11:55:19;-1.0486661896109581;;;-1.125;100.0
15558;BME280;7880;50.110;9.372;2024-01-15T12:00:23;-1.0133747437444982;;;-1.187;100.0
15558;BME280;7880;50.110;9.372;2024-01-15T12:05:23;-1.0385829208185897;;;-1.125;100.0
15558;BME280;7880;50.110;9.372;2024-01-15T12:10:27;-1.1242906684463378;;;-1.25;100.0
15558;BME280;7880;50.110;9.372;2024-01-15T12:15:31;-0.9780832836171612;;;-1.125;100.0
15558;BME280;7880;50.110;9.372;2024-01-15T12:20:34;-0.9125419626885559;;;-1.062;100.0
15558;BME280;7880;50.110;9.372;2024-01-15T12:25:40;-0.9982498340075836;;;-1.187;100.0
15558;BME280;7880;50.110;9.372;2024-01-15T12:30:46;-1.1142074083851186;;;-1.25;100.0
15558;BME280;7880;50.110;9.372;2024-01-15T12:35:46;-1.1545404416450764;;;-1.25;100.0
15558;BME280;7880;50.110;9.372;2024-01-15T12:40:50;-1.199915081798099;;;-1.312;100.0
15558;BME280;7880;50.110;9.372;2024-01-15T12:45:57;-1.2755394296662417;;;-1.312;100.0
15558;BME280;7880;50.110;9.372;2024-01-15T12:51:05;-1.2704978085123002;;;-1.375;100.0
15558;BME280;7880;50.110;9.372;2024-01-15T12:56:00;-1.2452896983770188;;;-1.375;100.0
15558;BME280;7880;50.110;9.372;2024-01-15T13:01:05;-1.194873456278583;;;-1.312;100.0
15558;BME280;7880;50.110;9.372;2024-01-15T13:06:10;-1.2856226711010095;;;-1.375;100.0
15558;BME280;7880;50.110;9.372;2024-01-15T13:11:13;-1.3814134066691621;;;-1.437;100.0
15558;BME280;7880;50.110;9.372;2024-01-15T13:16:27;-1.421746316528879;;;-1.5;100.0
15558;BME280;7880;50.110;9.372;2024-01-15T13:21:22;-1.3662885606696364;;;-1.437;100.0
15558;BME280;7880;50.110;9.372;2024-01-15T13:26:23;-1.3814134066691621;;;-1.437;100.0
15558;BME280;7880;50.110;9.372;2024-01-15T13:31:27;-1.4318295410834252;;;-1.5;100.0
15558;BME280;7880;50.110;9.372;2024-01-15T13:36:33;-1.4015798639273271;;;-1.5;100.0
15558;BME280;7880;50.110;9.372;2024-01-15T13:41:37;-1.3511637120507658;;;-1.437;100.0
15558;BME280;7880;50.110;9.372;2024-01-15T13:46:38;-1.3511637120507658;;;-1.5;100.0
15558;BME280;7880;50.110;9.372;2024-01-15T13:51:47;-1.3612469447543845;;;-1.5;100.0
15558;BME280;7880;50.110;9.372;2024-01-15T13:56:48;-1.4267879289516714;;;-1.5;100.0
15558;BME280;7880;50.110;9.372;2024-01-15T14:01:48;-1.3662885606696364;;;-1.5;100.0
15558;BME280;7880;50.110;9.372;2024-01-15T14:07:13;-1.295705911371624;;;-1.437;100.0
15558;BME280;7880;50.110;9.372;2024-01-15T14:12:16;-1.3259556251985487;;;-1.437;100.0
15558;BME280;7880;50.110;9.372;2024-01-15T14:17:20;-1.2805810505291446;;;-1.375;100.0
15558;BME280;7880;50.110;9.372;2024-01-15T14:22:25;-1.199915081798099;;;-1.375;100.0
15558;BME280;7880;50.110;9.372;2024-01-15T14:27:28;-1.1797485779738053;;;-1.312;100.0
15558;BME280;7880;50.110;9.372;2024-01-15T14:32:33;-1.1595820694928989;;;-1.312;100.0
15558;BME280;7880;50.110;9.372;2024-01-15T14:37:37;-1.0789159890031441;;;-1.25;100.0
15558;BME280;7880;50.110;9.372;2024-01-15T14:42:42;-1.1797485779738053;;;-1.25;100.0
15558;BME280;7880;50.110;9.372;2024-01-15T14:48:04;-0.9478334493003786;;;-1.062;100.0
15558;BME280;7880;50.110;9.372;2024-01-15T14:52:49;-1.0234580154472497;;;-1.125;100.0
15558;BME280;7880;50.110;9.372;2024-01-15T14:57:53;-0.9831249216513243;;;-1.062;100.0
15558;BME280;7880;50.110;9.372;2024-01-15T15:03:04;-0.872208817669889;;;-1.0;100.0
15558;BME280;7880;50.110;9.372;2024-01-15T15:07:59;-0.8873337492346763;;;-1.0;100.0
15558;BME280;7880;50.110;9.372;2024-01-15T15:13:05;-0.7915424717532005;;;-0.875;100.0
15558;BME280;7880;50.110;9.372;2024-01-15T15:18:06;-0.6604595007316675;;;-0.687;100.0
15558;BME280;7880;50.110;9.372;2024-01-15T15:23:11;-0.655417844071053;;;-0.75;100.0
15558;BME280;7880;50.110;9.372;2024-01-15T15:28:12;-0.6806261244637426;;;-0.75;100.0
15558;BME280;7880;50.110;9.372;2024-01-15T15:33:19;-0.6705428131797817;;;-0.75;100.0
15558;BME280;7880;50.110;9.372;2024-01-15T15:38:23;-0.6907094345835503;;;-0.75;100.0
15558;BME280;7880;50.110;9.372;2024-01-15T15:43:22;-0.7007927435392048;;;-0.687;100.0
15558;BME280;7880;50.110;9.372;2024-01-15T15:48:25;-0.6755844689672813;;;-0.75;100.0
15558;BME280;7880;50.110;9.372;2024-01-15T15:53:31;-0.7108760513307061;;;-0.75;100.0
15558;BME280;7880;50.110;9.372;2024-01-15T15:58:32;-0.6655011571012437;;;-0.75;100.0
15558;BME280;7880;50.110;9.372;2024-01-15T16:03:34;-0.6957510892068968;;;-0.687;100.0
15558;BME280;7880;50.110;9.372;2024-01-15T16:08:37;-0.6150845803087577;;;-0.687;100.0
15558;BME280;7880;50.110;9.372;2024-01-15T16:13:44;-0.6352512145182118;;;-0.75;100.0
15558;BME280;7880;50.110;9.372;2024-01-15T16:18:45;-0.49912634323700333;;;-0.687;100.0
15558;BME280;7880;50.110;9.372;2024-01-15T16:23:48;-0.6655011571012437;;;-0.75;100.0
15558;BME280;7880;50.110;9.372;2024-01-15T16:28:51;-0.7159177047898992;;;-0.812;100.0
15558;BME280;7880;50.110;9.372;2024-01-15T16:33:57;-0.6352512145182118;;;-0.75;100.0
15558;BME280;7880;50.110;9.372;2024-01-15T16:38:58;-0.6655011571012437;;;-0.75;100.0
15558;BME280;7880;50.110;9.372;2024-01-15T16:44:02;-0.655417844071053;;;-0.75;100.0
15558;BME280;7880;50.110;9.372;2024-01-15T16:49:10;-0.7058343975804746;;;-0.75;100.0
15558;BME280;7880;50.110;9.372;2024-01-15T16:54:11;-0.7612925728259142;;;-0.812;100.0
15558;BME280;7880;50.110;9.372;2024-01-15T16:59:13;-0.645334529876709;;;-0.75;100.0
15558;BME280;7880;50.110;9.372;2024-01-15T17:04:18;-0.7612925728259142;;;-0.812;100.0
15558;BME280;7880;50.110;9.372;2024-01-15T17:09:22;-0.731042663421249;;;-0.75;100.0
15558;BME280;7880;50.110;9.372;2024-01-15T17:14:25;-0.6655011571012437;;;-0.75;100.0
15558;BME280;7880;50.110;9.372;2024-01-15T17:19:29;-0.6907094345835503;;;-0.687;100.0
15558;BME280;7880;50.110;9.372;2024-01-15T17:24:30;-0.6302095564024057;;;-0.687;100.0
15558;BME280;7880;50.110;9.372;2024-01-15T17:29:43;-0.6402928723429795;;;-0.687;100.0
15558;BME280;7880;50.110;9.372;2024-01-15T17:34:42;-0.6503761871194002;;;-0.75;100.0
15558;BME280;7880;50.110;9.372;2024-01-15T17:39:46;-0.7159177047898992;;;-0.75;100.0
15558;BME280;7880;50.110;9.372;2024-01-15T17:44:44;-0.7562509219860658;;;-0.812;100.0
15558;BME280;7880;50.110;9.372;2024-01-15T17:49:45;-0.7108760513307061;;;-0.75;100.0
15558;BME280;7880;50.110;9.372;2024-01-15T17:54:56;-0.746167619433254;;;-0.812;100.0
15558;BME280;7880;50.110;9.372;2024-01-15T17:59:52;-0.7713758736324963;;;-0.812;100.0
15558;BME280;7880;50.110;9.372;2024-01-15T18:05:00;-0.8066674172878265;;;-0.75;100.0
15558;BME280;7880;50.110;9.372;2024-01-15T18:10:00;-0.7915424717532005;;;-0.812;100.0
15558;BME280;7880;50.110;9.372;2024-01-15T18:15:05;-0.8066674172878265;;;-0.812;100.0
15558;BME280;7880;50.110;9.372;2024-01-15T18:20:08;-0.7965841205557809;;;-0.812;100.0
15558;BME280;7880;50.110;9.372;2024-01-15T18:25:13;-0.7865008226595819;;;-0.812;100.0
15558;BME280;7880;50.110;9.372;2024-01-15T18:30:19;-0.8369173004990443;;;-0.812;100.0
15558;BME280;7880;50.110;9.372;2024-01-15T18:35:26;-0.8923753925075288;;;-0.875;100.0
15558;BME280;7880;50.110;9.372;2024-01-15T18:40:24;-0.8470005925744772;;;-0.875;100.0
15558;BME280;7880;50.110;9.372;2024-01-15T18:45:32;-0.816750712855719;;;-0.875;100.0
15558;BME280;7880;50.110;9.372;2024-01-15T18:50:33;-0.8268340072594583;;;-0.875;100.0
15558;BME280;7880;50.110;9.372;2024-01-15T18:55:31;-0.8318756540247705;;;-0.875;100.0
15558;BME280;7880;50.110;9.372;2024-01-15T19:00:35;-0.8217923602031079;;;-0.812;100.0
15558;BME280;7880;50.110;9.372;2024-01-15T19:05:39;-0.8318756540247705;;;-0.812;100.0
15558;BME280;7880;50.110;9.372;2024-01-15T19:09:32;-0.7411259677202906;;;-0.812;100.0
15558;BME280;7880;50.110;9.372;2024-01-15T19:14:51;-0.7865008226595819;;;-0.812;100.0
15558;BME280;7880;50.110;9.372;2024-01-15T19:19:37;-0.781459173274925;;;-0.812;100.0
15558;BME280;7880;50.110;9.372;2024-01-15T19:24:39;-0.8066674172878265;;;-0.812;100.0
15558;BME280;7880;50.110;9.372;2024-01-15T19:29:43;-0.8470005925744772;;;-0.812;100.0
15558;BME280;7880;50.110;9.372;2024-01-15T19:34:53;-0.8570838834857568;;;-0.812;100.0
15558;BME280;7880;50.110;9.372;2024-01-15T19:39:49;-0.8570838834857568;;;-0.812;100.0
15558;BME280;7880;50.110;9.372;2024-01-15T19:44:58;-0.816750712855719;;;-0.812;100.0
15558;BME280;7880;50.110;9.372;2024-01-15T19:49:58;-0.7865008226595819;;;-0.812;100.0
15558;BME280;7880;50.110;9.372;2024-01-15T19:55:03;-0.7764175235992298;;;-0.812;100.0
15558;BME280;7880;50.110;9.372;2024-01-15T20:00:09;-0.7865008226595819;;;-0.812;100.0
15558;BME280;7880;50.110;9.372;2024-01-15T20:05:20;-0.7562509219860658;;;-0.812;100.0
15558;BME280;7880;50.110;9.372;2024-01-15T20:10:14;-0.7915424717532005;;;-0.875;100.0
15558;BME280;7880;50.110;9.372;2024-01-15T20:15:25;-0.8066674172878265;;;-0.875;100.0
15558;BME280;7880;50.110;9.372;2024-01-15T20:20:20;-0.8822921056707855;;;-0.937;100.0
15558;BME280;7880;50.110;9.372;2024-01-15T20:25:21;-0.8772504618158564;;;-0.937;100.0
15558;BME280;7880;50.110;9.372;2024-01-15T20:30:24;-0.8217923602031079;;;-0.875;100.0
15558;BME280;7880;50.110;9.372;2024-01-15T20:35:35;-0.8117090652172919;;;-0.875;100.0
15558;BME280;7880;50.110;9.372;2024-01-15T20:40:30;-0.7713758736324963;;;-0.875;100.0
15558;BME280;7880;50.110;9.372;2024-01-15T20:45:35;-0.816750712855719;;;-0.875;100.0
15558;BME280;7880;50.110;9.372;2024-01-15T20:50:40;-0.781459173274925;;;-0.812;100.0
15558;BME280;7880;50.110;9.372;2024-01-15T20:55:42;-0.781459173274925;;;-0.812;100.0
15558;BME280;7880;50.110;9.372;2024-01-15T21:00:46;-0.8369173004990443;;;-0.812;100.0
15558;BME280;7880;50.110;9.372;2024-01-15T21:05:48;-0.8570838834857568;;;-0.875;100.0
15558;BME280;7880;50.110;9.372;2024-01-15T21:10:53;-0.8671671732328832;;;-0.875;100.0
15558;BME280;7880;50.110;9.372;2024-01-15T21:16:03;-0.9125419626885559;;;-0.937;100.0
15558;BME280;7880;50.110;9.372;2024-01-15T21:21:03;-0.8923753925075288;;;-0.875;100.0
15558;BME280;7880;50.110;9.372;2024-01-15T21:26:22;-0.8923753925075288;;;-0.875;100.0
15558;BME280;7880;50.110;9.372;2024-01-15T21:31:12;-0.9478334493003786;;;-0.875;100.0
15558;BME280;7880;50.110;9.372;2024-01-15T21:36:15;-0.8974170354893432;;;-0.937;100.0
15558;BME280;7880;50.110;9.372;2024-01-15T21:41:17;-0.9427918092289473;;;-0.875;100.0
15558;BME280;7880;50.110;9.372;2024-01-15T21:46:26;-0.9831249216513243;;;-0.937;100.0
15558;BME280;7880;50.110;9.372;2024-01-15T21:51:28;-0.9175836045062169;;;-0.875;100.0
15558;BME280;7880;50.110;9.372;2024-01-15T21:56:33;-0.9932081968465354;;;-0.937;100.0
15558;BME280;7880;50.110;9.372;2024-01-15T22:01:39;-0.9932081968465354;;;-0.937;100.0
15558;BME280;7880;50.110;9.372;2024-01-15T22:06:36;-1.043624555360293;;;-1.0;100.0
15558;BME280;7880;50.110;9.372;2024-01-15T22:11:47;-1.0587494572391734;;;-1.0;100.0
15558;BME280;7880;50.110;9.372;2024-01-15T22:16:50;-1.1142074083851186;;;-1.062;100.0
15558;BME280;7880;50.110;9.372;2024-01-15T22:21:52;-1.1091657779179513;;;-1.062;100.0
15558;BME280;7880;50.110;9.372;2024-01-15T22:26:50;-1.1091657779179513;;;-1.062;100.0
15558;BME280;7880;50.110;9.372;2024-01-15T22:31:52;-1.1091657779179513;;;-1.062;100.0
15558;BME280;7880;50.110;9.372;2024-01-15T22:36:56;-1.0990825161105022;;;-1.062;100.0
15558;BME280;7880;50.110;9.372;2024-01-15T22:42:01;-1.1192490385612472;;;-1.062;100.0
15558;BME280;7880;50.110;9.372;2024-01-15T22:47:05;-1.134373927343404;;;-1.062;100.0
15558;BME280;7880;50.110;9.372;2024-01-15T22:52:11;-1.1847902043664362;;;-1.125;100.0
15558;BME280;7880;50.110;9.372;2024-01-15T22:57:20;-1.2654561870673207;;;-1.187;100.0
15558;BME280;7880;50.110;9.372;2024-01-15T23:02:18;-1.199915081798099;;;-1.187;100.0
15558;BME280;7880;50.110;9.372;2024-01-15T23:07:21;-1.235206452285638;;;-1.187;100.0
15558;BME280;7880;50.110;9.372;2024-01-15T23:12:27;-1.2755394296662417;;;-1.187;100.0
15558;BME280;7880;50.110;9.372;2024-01-15T23:17:29;-1.386455021420261;;;-1.25;100.0
15558;BME280;7880;50.110;9.372;2024-01-15T23:22:32;-1.3662885606696364;;;-1.25;100.0
15558;BME280;7880;50.110;9.372;2024-01-15T23:27:38;-1.2856226711010095;;;-1.25;100.0